createdAt,value
2018-12-01T00:06:41.468Z,74.60
2018-12-01T00:16:45.982Z,75.00
2018-12-01T00:26:50.645Z,75.70
2018-12-01T00:36:55.147Z,76.00
2018-12-01T00:57:03.692Z,76.70
2018-12-01T01:07:08.111Z,76.80
2018-12-01T01:17:12.488Z,77.60
2018-12-01T01:27:16.834Z,78.00
2018-12-01T01:37:21.474Z,76.70
2018-12-01T01:47:25.936Z,77.00
2018-12-01T01:57:30.358Z,77.50
2018-12-01T02:17:38.643Z,78.70
2018-12-01T02:27:43.123Z,77.70
2018-12-01T02:37:47.607Z,78.50
2018-12-01T02:57:55.959Z,77.50
2018-12-01T03:08:00.345Z,77.00
2018-12-01T03:18:04.796Z,77.10
2018-12-01T03:28:09.237Z,77.40
2018-12-01T03:38:13.755Z,77.40
2018-12-01T03:48:18.281Z,77.40
2018-12-01T03:58:22.685Z,77.20
2018-12-01T04:08:27.092Z,77.40
2018-12-01T04:28:35.446Z,76.90
2018-12-01T04:38:39.816Z,77.70
2018-12-01T04:48:44.224Z,78.20
2018-12-01T04:58:48.610Z,74.60
2018-12-01T05:08:53.272Z,76.90
2018-12-01T05:18:57.622Z,77.50
2018-12-01T05:29:02.218Z,77.50
2018-12-01T05:39:08.696Z,77.30
2018-12-01T05:49:13.096Z,77.10
2018-12-01T05:59:17.407Z,76.50
2018-12-01T06:09:21.793Z,76.50
2018-12-01T06:19:26.155Z,76.90
2018-12-01T06:29:30.524Z,77.20
2018-12-01T06:39:34.985Z,77.20
2018-12-01T06:49:39.462Z,74.80
2018-12-01T07:19:51.682Z,75.70
2018-12-01T07:29:58.134Z,75.30
2018-12-01T07:40:00.641Z,76.80
2018-12-01T08:10:16.530Z,75.20
2018-12-01T08:20:21.089Z,73.00
2018-12-01T08:40:31.179Z,77.70
2018-12-01T08:50:35.956Z,77.60
2018-12-01T09:20:49.526Z,76.50
2018-12-01T09:30:53.992Z,75.80
2018-12-01T09:40:58.397Z,75.10
2018-12-01T10:11:10.842Z,76.30
2018-12-01T10:21:15.345Z,74.40
2018-12-01T10:31:19.830Z,78.40
2018-12-01T10:51:28.183Z,79.30
2018-12-01T11:11:38.112Z,80.80
2018-12-01T11:21:42.898Z,78.20
2018-12-01T11:31:47.486Z,78.80
2018-12-01T11:51:55.859Z,77.30
2018-12-01T12:22:08.646Z,75.50
2018-12-01T12:32:13.195Z,75.10
2018-12-01T13:02:25.596Z,73.90
2018-12-01T13:12:30.488Z,70.60
2018-12-01T13:22:35.222Z,73.30
2018-12-01T13:52:51.652Z,72.60
2018-12-01T14:02:56.322Z,66.10
2018-12-01T14:13:02.639Z,71.80
2018-12-01T14:23:07.325Z,63.70
2018-12-01T14:33:12.919Z,70.80
2018-12-01T14:43:17.673Z,70.90
2018-12-01T14:53:22.227Z,67.50
2018-12-01T15:03:26.671Z,70.60
2018-12-01T15:23:35.189Z,69.60
2018-12-01T15:33:39.884Z,69.50
2018-12-01T15:43:44.376Z,68.80
2018-12-01T16:03:53.020Z,68.30
2018-12-01T16:13:57.622Z,68.20
2018-12-01T16:34:06.643Z,68.60
2018-12-01T16:44:11.187Z,68.30
2018-12-01T16:54:15.688Z,68.20
2018-12-01T17:05:22.578Z,68.60
2018-12-01T17:15:27.165Z,68.10
2018-12-01T17:45:39.831Z,68.10
2018-12-01T17:55:44.428Z,68.10
2018-12-01T18:05:49.931Z,68.00
2018-12-01T18:15:54.637Z,60.90
2018-12-01T18:36:03.105Z,67.70
2018-12-01T18:46:10.506Z,65.50
2018-12-01T19:06:19.868Z,59.30
2018-12-01T19:16:24.343Z,67.20
2018-12-01T19:26:28.863Z,67.10
2018-12-01T19:46:37.221Z,66.60
2018-12-01T19:56:41.737Z,66.90
2018-12-01T20:06:46.245Z,66.30
2018-12-01T20:16:53.347Z,66.30
2018-12-01T20:37:07.383Z,66.50
2018-12-01T20:47:11.789Z,66.60
2018-12-01T21:27:29.712Z,66.30
2018-12-01T21:47:38.132Z,66.50
2018-12-01T21:57:43.754Z,66.50
2018-12-01T22:07:48.254Z,66.50
2018-12-01T22:17:52.709Z,66.30
2018-12-01T22:27:57.162Z,66.50
2018-12-01T22:48:10.144Z,66.80
2018-12-01T22:58:16.645Z,66.50
2018-12-01T23:08:22.442Z,66.60
2018-12-01T23:18:27.191Z,66.70
2018-12-01T23:28:31.608Z,66.50
2018-12-01T23:38:36.123Z,66.50
2018-12-01T23:58:44.426Z,66.50
